createdAt,value
2023-05-05T00:00:16.760Z,45.64
2023-05-05T00:02:43.632Z,45.65
2023-05-05T00:05:14.656Z,45.48
2023-05-05T00:07:41.059Z,45.60
2023-05-05T00:10:07.923Z,45.52
2023-05-05T00:12:34.428Z,45.74
2023-05-05T00:15:01.714Z,45.79
2023-05-05T00:17:28.047Z,45.75
2023-05-05T00:19:54.445Z,45.95
2023-05-05T00:22:25.599Z,46.03
2023-05-05T00:24:51.973Z,46.02
2023-05-05T00:27:18.347Z,46.03
2023-05-05T00:29:44.746Z,46.08
2023-05-05T00:32:11.119Z,46.06
2023-05-05T00:34:37.480Z,46.04
2023-05-05T00:37:03.935Z,45.92
2023-05-05T00:39:30.363Z,45.85
2023-05-05T00:41:56.726Z,45.89
2023-05-05T00:44:41.979Z,45.81
2023-05-05T00:47:09.456Z,45.85
2023-05-05T00:49:36.816Z,45.93
2023-05-05T00:52:07.198Z,45.92
2023-05-05T00:54:34.594Z,45.74
2023-05-05T00:57:02.170Z,45.97
2023-05-05T00:59:30.317Z,46.08
2023-05-05T01:01:57.025Z,46.06
2023-05-05T01:04:25.487Z,46.29
2023-05-05T01:07:10.616Z,46.23
2023-05-05T01:09:42.075Z,46.23
2023-05-05T01:12:33.103Z,46.13
2023-05-05T01:15:27.031Z,46.23
2023-05-05T01:18:00.482Z,46.07
2023-05-05T01:20:39.110Z,46.30
2023-05-05T01:27:11.284Z,46.16
2023-05-05T01:29:46.955Z,46.24
2023-05-05T01:32:15.833Z,46.31
2023-05-05T01:34:50.549Z,46.17
2023-05-05T01:37:27.049Z,45.95
2023-05-05T01:39:58.998Z,45.97
2023-05-05T01:42:27.015Z,46.05
2023-05-05T01:44:54.492Z,46.10
2023-05-05T01:47:23.298Z,46.03
2023-05-05T01:49:51.208Z,46.08
2023-05-05T01:52:18.206Z,46.10
2023-05-05T01:54:45.602Z,46.24
2023-05-05T01:57:13.413Z,46.43
2023-05-05T01:59:40.041Z,46.23
2023-05-05T02:02:10.078Z,46.37
2023-05-05T02:04:41.182Z,46.43
2023-05-05T02:07:08.716Z,46.48
2023-05-05T02:09:36.969Z,46.30
2023-05-05T02:12:05.066Z,46.20
2023-05-05T02:14:32.713Z,46.29
2023-05-05T02:16:59.534Z,46.24
2023-05-05T02:19:34.389Z,46.29
2023-05-05T02:22:00.865Z,46.57
2023-05-05T02:24:27.316Z,46.19
2023-05-05T02:26:55.961Z,46.38
2023-05-05T02:29:31.202Z,46.00
2023-05-05T02:32:03.551Z,46.17
2023-05-05T02:34:36.583Z,46.23
2023-05-05T02:37:09.661Z,46.18
2023-05-05T02:39:45.343Z,46.32
2023-05-05T02:42:19.893Z,46.10
2023-05-05T02:44:50.430Z,46.40
2023-05-05T02:47:16.941Z,46.26
2023-05-05T02:49:43.460Z,46.40
2023-05-05T02:52:10.056Z,46.35
2023-05-05T02:54:38.158Z,46.63
2023-05-05T02:57:18.444Z,46.54
2023-05-05T03:00:18.123Z,46.50
2023-05-05T03:03:04.012Z,46.39
2023-05-05T03:05:41.329Z,46.48
2023-05-05T03:08:18.305Z,46.30
2023-05-05T03:10:58.785Z,46.35
2023-05-05T03:13:28.128Z,46.21
2023-05-05T03:15:56.060Z,46.36
2023-05-05T03:18:26.312Z,46.22
2023-05-05T03:21:08.416Z,46.24
2023-05-05T03:23:37.000Z,46.03
2023-05-05T03:26:07.291Z,46.23
2023-05-05T03:28:38.211Z,46.09
2023-05-05T03:31:13.321Z,46.06
2023-05-05T03:33:40.603Z,46.14
2023-05-05T03:36:07.917Z,46.55
2023-05-05T03:38:34.634Z,46.18
2023-05-05T03:41:05.397Z,46.38
2023-05-05T03:43:33.002Z,46.16
2023-05-05T03:45:59.402Z,46.14
2023-05-05T03:48:26.595Z,46.29
2023-05-05T03:50:53.985Z,46.40
2023-05-05T03:53:22.579Z,46.23
2023-05-05T03:55:49.120Z,46.76
2023-05-05T03:58:16.316Z,46.23
2023-05-05T04:00:42.948Z,46.34
2023-05-05T04:03:11.018Z,46.33
2023-05-05T04:05:38.029Z,46.30
2023-05-05T04:08:05.146Z,46.24
2023-05-05T04:10:32.062Z,46.27
2023-05-05T04:12:58.494Z,46.69
2023-05-05T04:15:24.938Z,46.23
2023-05-05T04:17:51.638Z,46.19
2023-05-05T04:20:18.746Z,46.25
2023-05-05T04:22:45.934Z,46.21
2023-05-05T04:25:12.531Z,46.54
2023-05-05T04:27:38.987Z,46.22
2023-05-05T04:30:08.064Z,46.32
2023-05-05T04:32:36.975Z,46.27
2023-05-05T04:35:04.374Z,46.24
2023-05-05T04:37:30.884Z,46.36
2023-05-05T04:39:58.369Z,46.34
2023-05-05T04:42:24.837Z,46.30
2023-05-05T04:44:51.304Z,46.40
2023-05-05T04:47:17.709Z,46.17
2023-05-05T04:49:45.055Z,46.33
2023-05-05T04:52:14.363Z,46.33
2023-05-05T04:54:40.910Z,46.34
2023-05-05T04:57:07.437Z,46.67
2023-05-05T04:59:34.807Z,46.27
2023-05-05T05:02:01.249Z,46.41
2023-05-05T05:04:27.680Z,46.42
2023-05-05T05:06:55.728Z,46.41
2023-05-05T05:09:23.314Z,46.30
2023-05-05T05:11:49.706Z,46.19
2023-05-05T05:14:16.138Z,46.53
2023-05-05T05:16:42.907Z,47.05
2023-05-05T05:19:09.380Z,46.97
2023-05-05T05:21:36.148Z,46.75
2023-05-05T05:24:03.143Z,45.33
2023-05-05T05:26:29.740Z,43.29
2023-05-05T05:28:56.159Z,41.76
2023-05-05T05:31:23.416Z,40.94
2023-05-05T05:33:50.951Z,40.99
2023-05-05T05:36:18.116Z,40.83
2023-05-05T05:38:44.490Z,40.36
2023-05-05T05:41:11.413Z,42.21
2023-05-05T05:43:38.899Z,42.85
2023-05-05T05:46:08.237Z,43.38
2023-05-05T05:48:35.866Z,43.82
2023-05-05T05:51:03.071Z,44.15
2023-05-05T05:53:29.589Z,44.24
2023-05-05T05:55:56.093Z,44.27
2023-05-05T05:58:22.507Z,44.49
2023-05-05T06:00:49.233Z,44.82
2023-05-05T06:03:16.195Z,45.00
2023-05-05T06:05:42.792Z,45.29
2023-05-05T06:08:09.818Z,45.29
2023-05-05T06:10:42.006Z,45.64
2023-05-05T06:13:13.104Z,44.83
2023-05-05T06:15:43.438Z,45.60
2023-05-05T06:18:12.162Z,45.66
2023-05-05T06:20:38.634Z,45.55
2023-05-05T06:23:05.270Z,45.65
2023-05-05T06:25:34.042Z,45.78
2023-05-05T06:28:01.835Z,45.68
2023-05-05T06:30:28.314Z,45.61
2023-05-05T06:32:54.781Z,45.98
2023-05-05T06:35:22.132Z,45.95
2023-05-05T06:37:48.515Z,46.01
2023-05-05T06:40:14.954Z,46.06
2023-05-05T06:42:41.570Z,45.95
2023-05-05T06:45:10.893Z,46.25
2023-05-05T06:47:37.354Z,45.75
2023-05-05T06:50:03.964Z,45.22
2023-05-05T06:52:30.356Z,45.24
2023-05-05T06:54:56.741Z,45.41
2023-05-05T06:57:23.300Z,45.40
2023-05-05T06:59:49.743Z,45.16
2023-05-05T07:02:16.171Z,45.54
2023-05-05T07:04:44.159Z,45.14
2023-05-05T07:07:10.657Z,45.53
2023-05-05T07:09:37.032Z,44.86
2023-05-05T07:12:03.624Z,45.19
2023-05-05T07:14:36.262Z,45.42
2023-05-05T07:17:02.764Z,45.27
2023-05-05T07:19:29.110Z,45.56
2023-05-05T07:21:55.509Z,45.37
2023-05-05T07:24:23.246Z,45.35
2023-05-05T07:26:49.830Z,45.32
2023-05-05T07:29:16.214Z,45.20
2023-05-05T07:31:42.617Z,45.39
2023-05-05T07:34:08.986Z,45.41
2023-05-05T07:36:35.536Z,44.96
2023-05-05T07:39:01.910Z,45.28
2023-05-05T07:41:30.932Z,45.26
2023-05-05T07:43:57.513Z,44.99
2023-05-05T07:46:23.950Z,44.81
2023-05-05T07:48:50.332Z,45.12
2023-05-05T07:51:16.748Z,45.10
2023-05-05T07:53:43.270Z,45.17
2023-05-05T07:56:09.703Z,44.55
2023-05-05T07:58:36.182Z,44.50
2023-05-05T08:01:02.726Z,44.21
2023-05-05T08:03:29.242Z,42.76
2023-05-05T08:05:56.435Z,42.45
2023-05-05T08:08:24.831Z,43.92
2023-05-05T08:10:52.850Z,44.23
2023-05-05T08:13:19.448Z,43.98
2023-05-05T08:15:45.913Z,44.14
2023-05-05T08:18:12.508Z,43.59
2023-05-05T08:20:39.185Z,43.31
2023-05-05T08:23:06.142Z,43.74
2023-05-05T08:25:32.487Z,43.90
2023-05-05T08:27:58.840Z,44.25
2023-05-05T08:30:25.191Z,44.03
2023-05-05T08:32:51.626Z,44.15
2023-05-05T08:35:18.127Z,44.45
2023-05-05T08:37:44.937Z,44.34
2023-05-05T08:40:14.085Z,44.06
2023-05-05T08:42:41.944Z,43.91
2023-05-05T08:45:09.873Z,44.20
2023-05-05T08:47:38.222Z,44.01
2023-05-05T08:50:05.909Z,44.02
2023-05-05T08:52:40.207Z,44.43
2023-05-05T08:55:14.488Z,43.88
2023-05-05T08:57:56.546Z,43.80
2023-05-05T09:00:23.588Z,43.74
2023-05-05T09:02:50.659Z,43.66
2023-05-05T09:05:17.671Z,43.84
2023-05-05T09:07:44.295Z,44.21
2023-05-05T09:10:12.017Z,44.29
2023-05-05T09:12:42.629Z,44.18
2023-05-05T09:15:11.587Z,44.30
2023-05-05T09:17:38.845Z,44.37
2023-05-05T09:20:09.572Z,44.56
2023-05-05T09:22:38.438Z,44.38
2023-05-05T09:25:06.881Z,44.20
2023-05-05T09:27:38.464Z,44.41
2023-05-05T09:30:05.991Z,44.86
2023-05-05T09:32:55.397Z,44.52
2023-05-05T09:35:23.156Z,44.54
2023-05-05T09:37:49.626Z,44.83
2023-05-05T09:40:18.490Z,44.60
2023-05-05T09:42:45.112Z,44.32
2023-05-05T09:45:18.094Z,44.57
2023-05-05T09:47:46.261Z,44.35
2023-05-05T09:50:18.641Z,44.38
2023-05-05T09:53:00.188Z,44.22
2023-05-05T09:55:26.698Z,44.01
2023-05-05T09:57:53.184Z,44.14
2023-05-05T10:00:20.281Z,44.17
2023-05-05T10:02:47.012Z,43.90
2023-05-05T10:05:16.023Z,44.00
2023-05-05T10:07:44.640Z,43.99
2023-05-05T10:10:16.809Z,43.93
2023-05-05T10:12:45.800Z,43.16
2023-05-05T10:15:15.021Z,42.86
2023-05-05T10:20:19.125Z,42.80
2023-05-05T10:22:54.393Z,43.40
2023-05-05T10:25:34.980Z,43.54
2023-05-05T10:28:06.378Z,44.11
2023-05-05T10:30:41.850Z,44.11
2023-05-05T10:33:30.411Z,43.81
2023-05-05T10:36:02.232Z,43.82
2023-05-05T10:38:32.702Z,43.92
2023-05-05T10:41:02.571Z,44.30
2023-05-05T10:43:33.595Z,43.91
2023-05-05T10:46:00.483Z,43.80
2023-05-05T10:48:38.145Z,44.34
2023-05-05T10:51:40.560Z,44.65
2023-05-05T10:54:19.831Z,44.56
2023-05-05T10:56:47.219Z,44.88
2023-05-05T10:59:43.536Z,44.93
2023-05-05T11:02:28.104Z,44.63
2023-05-05T11:05:22.774Z,44.84
2023-05-05T11:07:51.385Z,44.91
2023-05-05T11:10:20.539Z,44.59
2023-05-05T11:13:10.254Z,44.67
2023-05-05T11:15:37.961Z,45.08
2023-05-05T11:18:08.004Z,45.39
2023-05-05T11:20:39.319Z,44.63
2023-05-05T11:23:05.633Z,44.25
2023-05-05T11:25:35.026Z,44.30
2023-05-05T11:28:09.230Z,44.01
2023-05-05T11:30:56.895Z,44.38
2023-05-05T11:33:38.501Z,44.71
2023-05-05T11:36:09.272Z,43.87
2023-05-05T11:39:06.516Z,42.08
2023-05-05T11:41:32.860Z,42.24
2023-05-05T11:44:16.641Z,42.43
2023-05-05T11:46:52.067Z,42.02
2023-05-05T11:49:35.866Z,42.18
2023-05-05T11:52:03.384Z,42.27
2023-05-05T11:54:30.336Z,42.22
2023-05-05T11:57:04.860Z,42.47
2023-05-05T11:59:32.628Z,42.87
2023-05-05T12:01:59.581Z,42.97
2023-05-05T12:04:26.491Z,42.66
2023-05-05T12:06:55.222Z,42.68
2023-05-05T12:09:22.774Z,42.58
2023-05-05T12:11:53.243Z,42.53
2023-05-05T12:14:20.047Z,43.00
2023-05-05T12:17:03.373Z,42.22
2023-05-05T12:19:33.121Z,42.14
2023-05-05T12:22:03.966Z,42.48
2023-05-05T12:24:30.881Z,42.43
2023-05-05T12:27:13.147Z,42.01
2023-05-05T12:29:39.618Z,42.16
2023-05-05T12:32:06.277Z,42.59
2023-05-05T12:34:32.878Z,42.38
2023-05-05T12:37:01.048Z,42.33
2023-05-05T12:39:36.996Z,41.85
2023-05-05T12:42:04.579Z,41.80
2023-05-05T12:44:38.315Z,42.28
2023-05-05T12:47:05.470Z,42.70
2023-05-05T12:49:34.055Z,42.72
2023-05-05T12:52:00.705Z,41.90
2023-05-05T12:54:30.551Z,42.18
2023-05-05T12:56:57.226Z,42.38
2023-05-05T12:59:23.967Z,42.36
2023-05-05T13:01:52.565Z,42.30
2023-05-05T13:04:20.875Z,42.78
2023-05-05T13:06:49.230Z,42.49
2023-05-05T13:09:36.013Z,42.33
2023-05-05T13:12:03.834Z,42.87
2023-05-05T13:14:31.826Z,42.29
2023-05-05T13:16:58.320Z,42.49
2023-05-05T13:19:31.645Z,42.41
2023-05-05T13:22:01.713Z,42.55
2023-05-05T13:24:42.323Z,42.83
2023-05-05T13:27:16.404Z,42.48
2023-05-05T13:29:43.617Z,42.99
2023-05-05T13:32:10.021Z,42.81
2023-05-05T13:34:40.082Z,42.70
2023-05-05T13:37:06.560Z,42.87
2023-05-05T13:39:33.153Z,43.00
2023-05-05T13:42:00.381Z,42.98
2023-05-05T13:44:26.811Z,43.22
2023-05-05T13:46:53.211Z,42.80
2023-05-05T13:49:20.104Z,42.94
2023-05-05T13:51:47.038Z,42.95
2023-05-05T13:54:13.636Z,42.73
2023-05-05T13:56:40.027Z,43.25
2023-05-05T13:59:06.419Z,42.71
2023-05-05T14:01:32.945Z,42.68
2023-05-05T14:03:59.387Z,42.76
2023-05-05T14:06:26.350Z,43.23
2023-05-05T14:08:52.818Z,43.24
2023-05-05T14:11:20.662Z,43.31
2023-05-05T14:13:47.409Z,43.32
2023-05-05T14:16:14.146Z,42.49
2023-05-05T14:18:40.729Z,42.31
2023-05-05T14:21:07.305Z,42.82
2023-05-05T14:23:33.817Z,42.79
2023-05-05T14:26:00.623Z,42.88
2023-05-05T14:28:27.707Z,42.31
2023-05-05T14:30:54.181Z,43.02
2023-05-05T14:33:20.569Z,42.77
2023-05-05T14:35:47.132Z,42.65
2023-05-05T14:38:13.506Z,42.97
2023-05-05T14:40:39.851Z,42.62
2023-05-05T14:43:06.568Z,42.84
2023-05-05T14:45:33.237Z,42.61
2023-05-05T14:47:59.653Z,42.94
2023-05-05T14:50:26.099Z,42.96
2023-05-05T14:52:52.486Z,42.89
2023-05-05T14:55:19.057Z,42.61
2023-05-05T14:57:45.445Z,42.85
2023-05-05T15:00:12.791Z,42.87
2023-05-05T15:02:41.130Z,42.74
2023-05-05T15:05:08.106Z,43.04
2023-05-05T15:07:34.738Z,42.68
2023-05-05T15:10:02.113Z,43.16
2023-05-05T15:12:28.472Z,42.68
2023-05-05T15:14:55.445Z,42.68
2023-05-05T15:17:21.923Z,42.57
2023-05-05T15:19:48.645Z,42.42
2023-05-05T15:22:15.103Z,43.30
2023-05-05T15:24:45.599Z,43.06
2023-05-05T15:27:12.063Z,43.32
2023-05-05T15:29:38.418Z,43.24
2023-05-05T15:32:05.278Z,43.08
2023-05-05T15:34:31.750Z,43.85
2023-05-05T15:36:58.176Z,43.33
2023-05-05T15:39:24.552Z,43.75
2023-05-05T15:41:51.012Z,43.49
2023-05-05T15:44:17.416Z,43.89
2023-05-05T15:46:43.790Z,43.55
2023-05-05T15:49:10.609Z,43.89
2023-05-05T15:51:37.095Z,43.48
2023-05-05T15:54:03.729Z,44.03
2023-05-05T15:56:30.180Z,43.79
2023-05-05T15:58:56.816Z,43.28
2023-05-05T16:01:23.275Z,43.32
2023-05-05T16:03:49.712Z,43.24
2023-05-05T16:06:16.149Z,42.81
2023-05-05T16:08:42.542Z,42.77
2023-05-05T16:11:08.889Z,42.50
2023-05-05T16:13:35.340Z,42.72
2023-05-05T16:16:01.726Z,42.15
2023-05-05T16:18:28.077Z,42.71
2023-05-05T16:20:54.524Z,42.50
2023-05-05T16:23:20.912Z,42.73
2023-05-05T16:25:47.298Z,42.65
2023-05-05T16:28:13.733Z,43.02
2023-05-05T16:30:42.624Z,42.66
2023-05-05T16:33:09.232Z,43.07
2023-05-05T16:35:36.186Z,42.90
2023-05-05T16:38:02.616Z,43.02
2023-05-05T16:40:29.318Z,42.99
2023-05-05T16:42:55.731Z,43.22
2023-05-05T16:45:22.530Z,43.08
2023-05-05T16:47:49.030Z,43.45
2023-05-05T16:50:17.233Z,43.29
2023-05-05T16:52:43.666Z,43.42
2023-05-05T16:55:10.253Z,42.93
2023-05-05T16:57:36.865Z,43.18
2023-05-05T17:00:04.833Z,43.52
2023-05-05T17:02:31.260Z,43.78
2023-05-05T17:04:57.723Z,42.87
2023-05-05T17:07:24.192Z,43.07
2023-05-05T17:09:51.536Z,42.35
2023-05-05T17:12:17.940Z,42.96
2023-05-05T17:14:45.314Z,42.84
2023-05-05T17:17:11.880Z,43.26
2023-05-05T17:19:38.296Z,42.66
2023-05-05T17:22:04.748Z,42.88
2023-05-05T17:24:31.161Z,42.31
2023-05-05T17:26:57.509Z,43.08
2023-05-05T17:29:23.902Z,42.91
2023-05-05T17:31:50.587Z,42.72
2023-05-05T17:34:17.144Z,42.88
2023-05-05T17:36:43.546Z,42.87
2023-05-05T17:39:11.289Z,42.79
2023-05-05T17:41:37.774Z,42.41
2023-05-05T17:44:04.276Z,42.86
2023-05-05T17:46:30.718Z,43.07
2023-05-05T17:48:57.170Z,42.46
2023-05-05T17:51:23.665Z,42.97
2023-05-05T17:53:50.049Z,42.88
2023-05-05T17:56:16.428Z,43.08
2023-05-05T17:58:42.774Z,42.87
2023-05-05T18:01:13.414Z,42.48
2023-05-05T18:03:41.076Z,42.47
2023-05-05T18:06:07.661Z,42.97
2023-05-05T18:08:34.039Z,42.54
2023-05-05T18:11:00.398Z,43.11
2023-05-05T18:13:27.144Z,42.98
2023-05-05T18:15:53.516Z,42.70
2023-05-05T18:18:19.988Z,43.05
2023-05-05T18:20:52.462Z,42.70
2023-05-05T18:23:18.817Z,43.17
2023-05-05T18:25:45.163Z,43.46
2023-05-05T18:28:12.155Z,43.45
2023-05-05T18:30:38.589Z,43.05
2023-05-05T18:33:05.179Z,42.91
2023-05-05T18:35:31.649Z,43.52
2023-05-05T18:37:58.031Z,43.13
2023-05-05T18:40:24.412Z,43.64
2023-05-05T18:42:51.038Z,43.15
2023-05-05T18:45:17.458Z,43.63
2023-05-05T18:47:43.846Z,43.32
2023-05-05T18:50:10.300Z,43.30
2023-05-05T18:52:40.449Z,43.58
2023-05-05T18:55:07.406Z,44.04
2023-05-05T18:57:33.922Z,43.69
2023-05-05T19:00:03.800Z,43.78
2023-05-05T19:02:30.200Z,44.15
2023-05-05T19:04:56.714Z,44.35
2023-05-05T19:07:34.405Z,44.41
2023-05-05T19:10:04.500Z,44.50
2023-05-05T19:12:30.906Z,44.80
2023-05-05T19:14:57.671Z,44.82
2023-05-05T19:17:24.041Z,45.04
2023-05-05T19:19:50.596Z,44.79
2023-05-05T19:22:24.705Z,45.04
2023-05-05T19:24:51.101Z,45.39
2023-05-05T19:27:17.562Z,45.02
2023-05-05T19:29:52.511Z,45.02
2023-05-05T19:32:21.239Z,45.19
2023-05-05T19:34:47.897Z,45.31
2023-05-05T19:37:18.614Z,45.31
2023-05-05T19:39:45.684Z,45.33
2023-05-05T19:42:12.189Z,45.72
2023-05-05T19:44:38.688Z,45.58
2023-05-05T19:47:05.129Z,45.70
2023-05-05T19:49:31.862Z,45.64
2023-05-05T19:51:58.862Z,45.28
2023-05-05T19:54:25.664Z,45.50
2023-05-05T19:56:53.759Z,45.57
2023-05-05T19:59:22.398Z,45.37
2023-05-05T20:01:49.121Z,45.60
2023-05-05T20:04:15.543Z,45.34
2023-05-05T20:06:41.930Z,45.68
2023-05-05T20:09:08.482Z,45.38
2023-05-05T20:11:35.588Z,45.92
2023-05-05T20:14:02.064Z,46.06
2023-05-05T20:16:28.467Z,46.23
2023-05-05T20:18:54.895Z,46.54
2023-05-05T20:21:21.375Z,46.24
2023-05-05T20:23:47.920Z,46.17
2023-05-05T20:26:14.322Z,46.36
2023-05-05T20:28:44.818Z,46.32
2023-05-05T20:31:14.832Z,46.41
2023-05-05T20:33:41.271Z,46.33
2023-05-05T20:36:07.834Z,46.54
2023-05-05T20:38:34.219Z,46.30
2023-05-05T20:41:00.660Z,46.65
2023-05-05T20:43:27.171Z,46.51
2023-05-05T20:45:53.521Z,46.53
2023-05-05T20:48:19.881Z,46.67
2023-05-05T20:50:46.407Z,46.58
2023-05-05T20:53:16.051Z,46.50
2023-05-05T20:55:42.441Z,46.55
2023-05-05T20:58:09.074Z,46.49
2023-05-05T21:00:35.690Z,46.68
2023-05-05T21:03:02.714Z,46.58
2023-05-05T21:05:29.743Z,46.71
2023-05-05T21:07:57.812Z,46.79
2023-05-05T21:10:24.925Z,46.63
2023-05-05T21:12:51.369Z,46.52
2023-05-05T21:15:17.787Z,46.50
2023-05-05T21:17:44.255Z,46.45
2023-05-05T21:20:11.380Z,46.55
2023-05-05T21:22:37.985Z,46.35
2023-05-05T21:25:17.370Z,46.34
2023-05-05T21:27:46.053Z,46.14
2023-05-05T21:30:13.136Z,46.18
2023-05-05T21:32:40.298Z,46.44
2023-05-05T21:35:08.048Z,46.20
2023-05-05T21:37:38.211Z,46.32
2023-05-05T21:40:06.232Z,46.42
2023-05-05T21:42:32.720Z,46.31
2023-05-05T21:44:59.162Z,45.70
2023-05-05T21:47:27.114Z,46.13
2023-05-05T21:49:53.499Z,46.12
2023-05-05T21:52:19.902Z,46.49
2023-05-05T21:54:46.291Z,46.80
2023-05-05T21:57:12.636Z,46.80
2023-05-05T21:59:39.068Z,46.88
2023-05-05T22:02:06.592Z,46.69
2023-05-05T22:04:32.970Z,46.77
2023-05-05T22:06:59.377Z,46.66
2023-05-05T22:09:25.717Z,46.71
2023-05-05T22:11:52.084Z,46.71
2023-05-05T22:14:18.497Z,46.93
2023-05-05T22:16:44.959Z,46.71
2023-05-05T22:19:11.580Z,46.81
2023-05-05T22:21:37.975Z,46.73
2023-05-05T22:24:04.754Z,46.76
2023-05-05T22:26:31.126Z,46.76
2023-05-05T22:28:57.761Z,46.82
2023-05-05T22:31:24.162Z,46.65
2023-05-05T22:33:50.565Z,46.80
2023-05-05T22:36:16.948Z,46.69
2023-05-05T22:38:43.326Z,47.39
2023-05-05T22:41:09.705Z,47.10
2023-05-05T22:43:36.172Z,47.12
2023-05-05T22:46:02.538Z,47.16
2023-05-05T22:48:29.193Z,47.14
2023-05-05T22:50:56.990Z,47.21
2023-05-05T22:53:23.506Z,47.11
2023-05-05T22:55:51.548Z,47.09
2023-05-05T22:58:18.597Z,47.00
2023-05-05T23:00:45.011Z,47.25
2023-05-05T23:03:12.137Z,47.06
2023-05-05T23:05:38.474Z,47.12
2023-05-05T23:08:05.036Z,46.96
2023-05-05T23:10:31.442Z,47.14
2023-05-05T23:12:57.899Z,46.75
2023-05-05T23:15:24.889Z,46.35
2023-05-05T23:17:51.319Z,46.44
2023-05-05T23:20:17.792Z,46.62
2023-05-05T23:22:44.155Z,46.69
2023-05-05T23:25:10.874Z,46.90
2023-05-05T23:27:38.624Z,46.77
2023-05-05T23:30:06.230Z,46.71
2023-05-05T23:32:32.976Z,46.88
2023-05-05T23:34:59.370Z,46.75
2023-05-05T23:37:25.781Z,46.69
2023-05-05T23:39:52.137Z,46.80
2023-05-05T23:42:18.498Z,46.58
2023-05-05T23:44:44.899Z,46.67
2023-05-05T23:47:11.255Z,46.58
2023-05-05T23:49:37.988Z,46.83
2023-05-05T23:52:04.599Z,46.70
2023-05-05T23:54:31.123Z,46.68
2023-05-05T23:56:58.590Z,46.89
2023-05-05T23:59:24.951Z,46.58
